sensor_id;sensor_type;location;lat;lon;timestamp;P1;durP1;ratioP1;P2;durP2;ratioP2
24383;SDS011;12504;52.870;8.798;2023-08-12T00:00:20;14.38;;;7.35;;
24383;SDS011;12504;52.870;8.798;2023-08-12T00:02:46;9.07;;;6.07;;
24383;SDS011;12504;52.870;8.798;2023-08-12T00:05:12;8.63;;;5.80;;
24383;SDS011;12504;52.870;8.798;2023-08-12T00:07:38;14.82;;;6.95;;
24383;SDS011;12504;52.870;8.798;2023-08-12T00:10:08;13.60;;;6.35;;
24383;SDS011;12504;52.870;8.798;2023-08-12T00:12:35;9.48;;;6.43;;
24383;SDS011;12504;52.870;8.798;2023-08-12T00:15:02;10.80;;;6.50;;
24383;SDS011;12504;52.870;8.798;2023-08-12T00:17:29;8.82;;;6.35;;
24383;SDS011;12504;52.870;8.798;2023-08-12T00:19:55;8.18;;;5.97;;
24383;SDS011;12504;52.870;8.798;2023-08-12T00:22:21;9.05;;;5.88;;
24383;SDS011;12504;52.870;8.798;2023-08-12T00:24:47;9.40;;;6.40;;
24383;SDS011;12504;52.870;8.798;2023-08-12T00:27:13;7.95;;;5.70;;
24383;SDS011;12504;52.870;8.798;2023-08-12T00:29:39;10.45;;;6.18;;
24383;SDS011;12504;52.870;8.798;2023-08-12T00:32:05;8.63;;;5.75;;
24383;SDS011;12504;52.870;8.798;2023-08-12T00:34:31;11.77;;;5.95;;
24383;SDS011;12504;52.870;8.798;2023-08-12T00:36:57;8.77;;;6.85;;
24383;SDS011;12504;52.870;8.798;2023-08-12T00:39:22;12.93;;;8.02;;
24383;SDS011;12504;52.870;8.798;2023-08-12T00:41:48;15.20;;;7.28;;
24383;SDS011;12504;52.870;8.798;2023-08-12T00:44:14;16.45;;;6.65;;
24383;SDS011;12504;52.870;8.798;2023-08-12T00:46:41;10.45;;;6.70;;
24383;SDS011;12504;52.870;8.798;2023-08-12T00:49:11;11.70;;;6.68;;
24383;SDS011;12504;52.870;8.798;2023-08-12T00:51:40;11.75;;;7.28;;
24383;SDS011;12504;52.870;8.798;2023-08-12T00:54:08;14.82;;;6.82;;
24383;SDS011;12504;52.870;8.798;2023-08-12T00:56:38;11.25;;;7.75;;
24383;SDS011;12504;52.870;8.798;2023-08-12T00:59:04;8.68;;;6.68;;
24383;SDS011;12504;52.870;8.798;2023-08-12T01:01:32;14.65;;;7.75;;
24383;SDS011;12504;52.870;8.798;2023-08-12T01:03:58;12.20;;;8.88;;
24383;SDS011;12504;52.870;8.798;2023-08-12T01:06:24;13.20;;;7.35;;
24383;SDS011;12504;52.870;8.798;2023-08-12T01:08:50;13.00;;;8.52;;
24383;SDS011;12504;52.870;8.798;2023-08-12T01:14:12;11.43;;;8.38;;
24383;SDS011;12504;52.870;8.798;2023-08-12T01:16:49;13.27;;;9.00;;
24383;SDS011;12504;52.870;8.798;2023-08-12T01:19:36;12.80;;;7.80;;
24383;SDS011;12504;52.870;8.798;2023-08-12T01:22:03;14.45;;;7.40;;
24383;SDS011;12504;52.870;8.798;2023-08-12T01:24:43;16.25;;;9.27;;
24383;SDS011;12504;52.870;8.798;2023-08-12T01:27:10;19.40;;;9.45;;
24383;SDS011;12504;52.870;8.798;2023-08-12T01:29:46;20.55;;;9.75;;
24383;SDS011;12504;52.870;8.798;2023-08-12T01:32:32;13.93;;;10.20;;
24383;SDS011;12504;52.870;8.798;2023-08-12T01:35:50;18.90;;;10.50;;
24383;SDS011;12504;52.870;8.798;2023-08-12T01:38:14;15.38;;;9.52;;
24383;SDS011;12504;52.870;8.798;2023-08-12T01:40:41;15.52;;;8.98;;
24383;SDS011;12504;52.870;8.798;2023-08-12T01:43:08;16.95;;;11.70;;
24383;SDS011;12504;52.870;8.798;2023-08-12T01:45:34;17.10;;;10.57;;
24383;SDS011;12504;52.870;8.798;2023-08-12T01:48:01;15.77;;;10.80;;
24383;SDS011;12504;52.870;8.798;2023-08-12T01:50:26;19.35;;;11.48;;
24383;SDS011;12504;52.870;8.798;2023-08-12T01:52:52;20.10;;;11.60;;
24383;SDS011;12504;52.870;8.798;2023-08-12T01:55:18;14.35;;;11.30;;
24383;SDS011;12504;52.870;8.798;2023-08-12T01:57:44;14.77;;;11.73;;
24383;SDS011;12504;52.870;8.798;2023-08-12T02:00:10;21.27;;;12.77;;
24383;SDS011;12504;52.870;8.798;2023-08-12T02:02:42;19.58;;;13.23;;
24383;SDS011;12504;52.870;8.798;2023-08-12T02:05:11;23.10;;;12.77;;
24383;SDS011;12504;52.870;8.798;2023-08-12T02:07:37;20.88;;;12.45;;
24383;SDS011;12504;52.870;8.798;2023-08-12T02:10:03;19.52;;;11.18;;
24383;SDS011;12504;52.870;8.798;2023-08-12T02:12:30;20.58;;;11.40;;
24383;SDS011;12504;52.870;8.798;2023-08-12T02:14:56;18.75;;;12.80;;
24383;SDS011;12504;52.870;8.798;2023-08-12T02:17:22;22.20;;;12.85;;
24383;SDS011;12504;52.870;8.798;2023-08-12T02:19:50;20.00;;;12.98;;
24383;SDS011;12504;52.870;8.798;2023-08-12T02:22:16;19.13;;;11.90;;
24383;SDS011;12504;52.870;8.798;2023-08-12T02:24:42;20.60;;;12.45;;
24383;SDS011;12504;52.870;8.798;2023-08-12T02:27:07;24.50;;;14.23;;
24383;SDS011;12504;52.870;8.798;2023-08-12T02:29:33;20.27;;;14.93;;
24383;SDS011;12504;52.870;8.798;2023-08-12T02:31:59;22.52;;;14.88;;
24383;SDS011;12504;52.870;8.798;2023-08-12T02:34:25;21.00;;;14.32;;
24383;SDS011;12504;52.870;8.798;2023-08-12T02:36:50;23.15;;;13.70;;
24383;SDS011;12504;52.870;8.798;2023-08-12T02:39:16;18.88;;;12.98;;
24383;SDS011;12504;52.870;8.798;2023-08-12T02:41:42;18.42;;;13.65;;
24383;SDS011;12504;52.870;8.798;2023-08-12T02:44:07;19.90;;;11.95;;
24383;SDS011;12504;52.870;8.798;2023-08-12T02:46:33;18.88;;;12.35;;
24383;SDS011;12504;52.870;8.798;2023-08-12T02:48:59;19.58;;;13.15;;
24383;SDS011;12504;52.870;8.798;2023-08-12T02:51:24;23.25;;;13.45;;
24383;SDS011;12504;52.870;8.798;2023-08-12T02:53:50;19.40;;;12.80;;
24383;SDS011;12504;52.870;8.798;2023-08-12T02:56:16;16.95;;;12.07;;
24383;SDS011;12504;52.870;8.798;2023-08-12T02:58:42;20.95;;;12.63;;
24383;SDS011;12504;52.870;8.798;2023-08-12T03:01:07;21.80;;;13.95;;
24383;SDS011;12504;52.870;8.798;2023-08-12T03:03:33;26.95;;;13.23;;
24383;SDS011;12504;52.870;8.798;2023-08-12T03:05:59;25.08;;;14.07;;
24383;SDS011;12504;52.870;8.798;2023-08-12T03:08:25;20.13;;;13.02;;
24383;SDS011;12504;52.870;8.798;2023-08-12T03:11:01;20.70;;;14.18;;
24383;SDS011;12504;52.870;8.798;2023-08-12T03:13:29;17.63;;;12.70;;
24383;SDS011;12504;52.870;8.798;2023-08-12T03:15:56;24.23;;;14.23;;
24383;SDS011;12504;52.870;8.798;2023-08-12T03:18:22;23.95;;;14.27;;
24383;SDS011;12504;52.870;8.798;2023-08-12T03:20:48;19.73;;;14.43;;
24383;SDS011;12504;52.870;8.798;2023-08-12T03:23:14;26.27;;;15.50;;
24383;SDS011;12504;52.870;8.798;2023-08-12T03:25:41;23.30;;;13.73;;
24383;SDS011;12504;52.870;8.798;2023-08-12T03:28:07;21.40;;;14.45;;
24383;SDS011;12504;52.870;8.798;2023-08-12T03:30:33;19.45;;;13.95;;
24383;SDS011;12504;52.870;8.798;2023-08-12T03:32:59;19.50;;;14.85;;
24383;SDS011;12504;52.870;8.798;2023-08-12T03:35:29;21.65;;;13.35;;
24383;SDS011;12504;52.870;8.798;2023-08-12T03:37:55;24.98;;;14.57;;
24383;SDS011;12504;52.870;8.798;2023-08-12T03:40:21;22.25;;;13.70;;
24383;SDS011;12504;52.870;8.798;2023-08-12T03:42:48;17.20;;;12.52;;
24383;SDS011;12504;52.870;8.798;2023-08-12T03:45:14;30.30;;;17.35;;
24383;SDS011;12504;52.870;8.798;2023-08-12T03:47:40;24.92;;;14.65;;
24383;SDS011;12504;52.870;8.798;2023-08-12T03:50:06;22.58;;;14.13;;
24383;SDS011;12504;52.870;8.798;2023-08-12T03:52:32;25.15;;;14.38;;
24383;SDS011;12504;52.870;8.798;2023-08-12T03:54:57;23.05;;;13.85;;
24383;SDS011;12504;52.870;8.798;2023-08-12T03:57:23;22.63;;;15.68;;
24383;SDS011;12504;52.870;8.798;2023-08-12T03:59:49;26.15;;;15.20;;
24383;SDS011;12504;52.870;8.798;2023-08-12T04:02:15;22.00;;;13.93;;
24383;SDS011;12504;52.870;8.798;2023-08-12T04:04:41;25.38;;;14.70;;
24383;SDS011;12504;52.870;8.798;2023-08-12T04:07:09;18.13;;;13.45;;
24383;SDS011;12504;52.870;8.798;2023-08-12T04:09:35;26.63;;;17.15;;
24383;SDS011;12504;52.870;8.798;2023-08-12T04:12:01;25.73;;;15.48;;
24383;SDS011;12504;52.870;8.798;2023-08-12T04:14:27;24.58;;;14.85;;
24383;SDS011;12504;52.870;8.798;2023-08-12T04:16:52;26.88;;;18.98;;
24383;SDS011;12504;52.870;8.798;2023-08-12T04:19:18;28.75;;;17.88;;
24383;SDS011;12504;52.870;8.798;2023-08-12T04:21:45;31.05;;;20.40;;
24383;SDS011;12504;52.870;8.798;2023-08-12T04:24:12;24.63;;;19.88;;
24383;SDS011;12504;52.870;8.798;2023-08-12T04:26:38;30.10;;;19.33;;
24383;SDS011;12504;52.870;8.798;2023-08-12T04:29:05;31.13;;;22.08;;
24383;SDS011;12504;52.870;8.798;2023-08-12T04:31:33;39.67;;;22.75;;
24383;SDS011;12504;52.870;8.798;2023-08-12T04:34:00;31.05;;;21.92;;
24383;SDS011;12504;52.870;8.798;2023-08-12T04:36:27;37.55;;;22.35;;
24383;SDS011;12504;52.870;8.798;2023-08-12T04:38:52;34.85;;;21.52;;
24383;SDS011;12504;52.870;8.798;2023-08-12T04:41:18;35.70;;;22.30;;
24383;SDS011;12504;52.870;8.798;2023-08-12T04:43:44;32.97;;;20.75;;
24383;SDS011;12504;52.870;8.798;2023-08-12T04:46:11;29.02;;;20.23;;
24383;SDS011;12504;52.870;8.798;2023-08-12T04:48:37;33.30;;;22.25;;
24383;SDS011;12504;52.870;8.798;2023-08-12T04:51:03;36.78;;;21.95;;
24383;SDS011;12504;52.870;8.798;2023-08-12T04:53:32;29.60;;;17.80;;
24383;SDS011;12504;52.870;8.798;2023-08-12T04:55:58;27.20;;;19.35;;
24383;SDS011;12504;52.870;8.798;2023-08-12T04:58:25;36.28;;;22.27;;
24383;SDS011;12504;52.870;8.798;2023-08-12T05:00:51;31.67;;;21.15;;
24383;SDS011;12504;52.870;8.798;2023-08-12T05:03:18;30.98;;;21.75;;
24383;SDS011;12504;52.870;8.798;2023-08-12T05:05:48;34.15;;;23.02;;
24383;SDS011;12504;52.870;8.798;2023-08-12T05:08:15;34.63;;;23.42;;
24383;SDS011;12504;52.870;8.798;2023-08-12T05:10:41;34.22;;;23.30;;
24383;SDS011;12504;52.870;8.798;2023-08-12T05:13:06;32.22;;;24.27;;
24383;SDS011;12504;52.870;8.798;2023-08-12T05:15:32;32.13;;;21.77;;
24383;SDS011;12504;52.870;8.798;2023-08-12T05:17:58;32.03;;;22.27;;
24383;SDS011;12504;52.870;8.798;2023-08-12T05:20:24;31.75;;;19.50;;
24383;SDS011;12504;52.870;8.798;2023-08-12T05:22:50;26.48;;;18.45;;
24383;SDS011;12504;52.870;8.798;2023-08-12T05:25:15;29.60;;;21.38;;
24383;SDS011;12504;52.870;8.798;2023-08-12T05:27:41;33.25;;;23.08;;
24383;SDS011;12504;52.870;8.798;2023-08-12T05:30:07;36.78;;;24.02;;
24383;SDS011;12504;52.870;8.798;2023-08-12T05:32:32;34.72;;;23.63;;
24383;SDS011;12504;52.870;8.798;2023-08-12T05:34:58;29.92;;;23.38;;
24383;SDS011;12504;52.870;8.798;2023-08-12T05:37:24;41.35;;;23.95;;
24383;SDS011;12504;52.870;8.798;2023-08-12T05:39:50;40.80;;;25.80;;
24383;SDS011;12504;52.870;8.798;2023-08-12T05:42:15;34.50;;;23.42;;
24383;SDS011;12504;52.870;8.798;2023-08-12T05:44:41;27.50;;;21.52;;
24383;SDS011;12504;52.870;8.798;2023-08-12T05:47:07;34.75;;;25.42;;
24383;SDS011;12504;52.870;8.798;2023-08-12T05:49:33;33.78;;;24.73;;
24383;SDS011;12504;52.870;8.798;2023-08-12T05:51:59;33.95;;;24.73;;
24383;SDS011;12504;52.870;8.798;2023-08-12T05:54:24;36.45;;;27.42;;
24383;SDS011;12504;52.870;8.798;2023-08-12T05:56:50;32.10;;;22.88;;
24383;SDS011;12504;52.870;8.798;2023-08-12T05:59:16;34.85;;;27.10;;
24383;SDS011;12504;52.870;8.798;2023-08-12T06:01:41;40.78;;;27.85;;
24383;SDS011;12504;52.870;8.798;2023-08-12T06:04:07;40.95;;;28.90;;
24383;SDS011;12504;52.870;8.798;2023-08-12T06:06:33;40.35;;;26.27;;
24383;SDS011;12504;52.870;8.798;2023-08-12T06:08:59;44.53;;;29.35;;
24383;SDS011;12504;52.870;8.798;2023-08-12T06:11:24;42.78;;;29.15;;
24383;SDS011;12504;52.870;8.798;2023-08-12T06:13:50;37.25;;;28.20;;
24383;SDS011;12504;52.870;8.798;2023-08-12T06:16:16;44.20;;;30.33;;
24383;SDS011;12504;52.870;8.798;2023-08-12T06:18:41;41.25;;;25.27;;
24383;SDS011;12504;52.870;8.798;2023-08-12T06:21:07;36.30;;;26.35;;
24383;SDS011;12504;52.870;8.798;2023-08-12T06:23:33;36.45;;;28.10;;
24383;SDS011;12504;52.870;8.798;2023-08-12T06:25:59;34.92;;;25.88;;
24383;SDS011;12504;52.870;8.798;2023-08-12T06:28:24;35.42;;;26.10;;
24383;SDS011;12504;52.870;8.798;2023-08-12T06:30:50;35.47;;;25.58;;
24383;SDS011;12504;52.870;8.798;2023-08-12T06:33:16;37.45;;;25.88;;
24383;SDS011;12504;52.870;8.798;2023-08-12T06:35:41;41.53;;;27.50;;
24383;SDS011;12504;52.870;8.798;2023-08-12T06:38:07;32.67;;;24.02;;
24383;SDS011;12504;52.870;8.798;2023-08-12T06:40:35;41.75;;;25.88;;
24383;SDS011;12504;52.870;8.798;2023-08-12T06:43:02;35.30;;;22.90;;
24383;SDS011;12504;52.870;8.798;2023-08-12T06:45:28;32.90;;;23.50;;
24383;SDS011;12504;52.870;8.798;2023-08-12T06:47:54;37.45;;;26.08;;
24383;SDS011;12504;52.870;8.798;2023-08-12T06:50:20;46.45;;;27.23;;
24383;SDS011;12504;52.870;8.798;2023-08-12T06:52:45;38.80;;;25.73;;
24383;SDS011;12504;52.870;8.798;2023-08-12T06:55:11;34.10;;;25.05;;
24383;SDS011;12504;52.870;8.798;2023-08-12T06:57:37;39.33;;;26.58;;
24383;SDS011;12504;52.870;8.798;2023-08-12T07:00:03;42.63;;;26.90;;
24383;SDS011;12504;52.870;8.798;2023-08-12T07:02:30;34.70;;;23.33;;
24383;SDS011;12504;52.870;8.798;2023-08-12T07:04:56;35.92;;;24.65;;
24383;SDS011;12504;52.870;8.798;2023-08-12T07:07:22;35.88;;;23.35;;
24383;SDS011;12504;52.870;8.798;2023-08-12T07:09:47;35.50;;;24.55;;
24383;SDS011;12504;52.870;8.798;2023-08-12T07:12:14;27.83;;;22.42;;
24383;SDS011;12504;52.870;8.798;2023-08-12T07:14:39;29.40;;;21.48;;
24383;SDS011;12504;52.870;8.798;2023-08-12T07:17:05;33.22;;;24.90;;
24383;SDS011;12504;52.870;8.798;2023-08-12T07:19:31;41.17;;;24.58;;
24383;SDS011;12504;52.870;8.798;2023-08-12T07:21:57;32.03;;;21.88;;
24383;SDS011;12504;52.870;8.798;2023-08-12T07:24:22;31.30;;;22.60;;
24383;SDS011;12504;52.870;8.798;2023-08-12T07:26:48;30.33;;;20.42;;
24383;SDS011;12504;52.870;8.798;2023-08-12T07:29:14;24.90;;;20.33;;
24383;SDS011;12504;52.870;8.798;2023-08-12T07:31:40;33.17;;;19.95;;
24383;SDS011;12504;52.870;8.798;2023-08-12T07:34:05;31.83;;;19.98;;
24383;SDS011;12504;52.870;8.798;2023-08-12T07:36:31;27.38;;;18.75;;
24383;SDS011;12504;52.870;8.798;2023-08-12T07:38:58;26.73;;;18.30;;
24383;SDS011;12504;52.870;8.798;2023-08-12T07:41:23;24.08;;;16.92;;
24383;SDS011;12504;52.870;8.798;2023-08-12T07:43:52;27.10;;;16.38;;
24383;SDS011;12504;52.870;8.798;2023-08-12T07:46:18;24.08;;;17.10;;
24383;SDS011;12504;52.870;8.798;2023-08-12T07:48:44;23.80;;;17.13;;
24383;SDS011;12504;52.870;8.798;2023-08-12T07:51:10;23.15;;;15.65;;
24383;SDS011;12504;52.870;8.798;2023-08-12T07:53:36;22.30;;;15.75;;
24383;SDS011;12504;52.870;8.798;2023-08-12T07:56:01;22.42;;;17.58;;
24383;SDS011;12504;52.870;8.798;2023-08-12T07:58:27;22.20;;;16.98;;
24383;SDS011;12504;52.870;8.798;2023-08-12T08:00:53;23.65;;;17.67;;
24383;SDS011;12504;52.870;8.798;2023-08-12T08:03:19;22.90;;;15.60;;
24383;SDS011;12504;52.870;8.798;2023-08-12T08:05:45;26.75;;;18.17;;
24383;SDS011;12504;52.870;8.798;2023-08-12T08:08:12;24.33;;;17.52;;
24383;SDS011;12504;52.870;8.798;2023-08-12T08:10:38;23.63;;;16.17;;
24383;SDS011;12504;52.870;8.798;2023-08-12T08:13:04;28.10;;;17.67;;
24383;SDS011;12504;52.870;8.798;2023-08-12T08:15:29;25.67;;;20.10;;
24383;SDS011;12504;52.870;8.798;2023-08-12T08:17:55;28.30;;;19.13;;
24383;SDS011;12504;52.870;8.798;2023-08-12T08:20:21;30.08;;;22.00;;
24383;SDS011;12504;52.870;8.798;2023-08-12T08:22:47;38.72;;;23.20;;
24383;SDS011;12504;52.870;8.798;2023-08-12T08:25:13;34.78;;;24.52;;
24383;SDS011;12504;52.870;8.798;2023-08-12T08:27:38;35.45;;;24.23;;
24383;SDS011;12504;52.870;8.798;2023-08-12T08:30:05;31.77;;;23.60;;
24383;SDS011;12504;52.870;8.798;2023-08-12T08:32:35;33.85;;;24.63;;
24383;SDS011;12504;52.870;8.798;2023-08-12T08:35:00;30.92;;;22.90;;
24383;SDS011;12504;52.870;8.798;2023-08-12T08:37:26;30.15;;;22.30;;
24383;SDS011;12504;52.870;8.798;2023-08-12T08:39:52;35.28;;;23.52;;
24383;SDS011;12504;52.870;8.798;2023-08-12T08:42:18;33.08;;;22.75;;
24383;SDS011;12504;52.870;8.798;2023-08-12T08:44:47;29.73;;;20.97;;
24383;SDS011;12504;52.870;8.798;2023-08-12T08:47:18;33.10;;;22.70;;
24383;SDS011;12504;52.870;8.798;2023-08-12T08:49:48;33.00;;;24.05;;
24383;SDS011;12504;52.870;8.798;2023-08-12T08:52:15;29.50;;;20.90;;
24383;SDS011;12504;52.870;8.798;2023-08-12T08:54:42;32.90;;;24.67;;
24383;SDS011;12504;52.870;8.798;2023-08-12T08:57:08;38.28;;;26.40;;
24383;SDS011;12504;52.870;8.798;2023-08-12T08:59:34;36.97;;;25.83;;
24383;SDS011;12504;52.870;8.798;2023-08-12T09:01:59;37.10;;;26.08;;
24383;SDS011;12504;52.870;8.798;2023-08-12T09:04:26;33.05;;;23.35;;
24383;SDS011;12504;52.870;8.798;2023-08-12T09:06:52;30.23;;;23.13;;
24383;SDS011;12504;52.870;8.798;2023-08-12T09:09:19;33.03;;;23.10;;
24383;SDS011;12504;52.870;8.798;2023-08-12T09:11:46;32.38;;;22.73;;
24383;SDS011;12504;52.870;8.798;2023-08-12T09:14:12;33.97;;;23.10;;
24383;SDS011;12504;52.870;8.798;2023-08-12T09:16:38;32.08;;;22.88;;
24383;SDS011;12504;52.870;8.798;2023-08-12T09:19:04;28.50;;;21.27;;
24383;SDS011;12504;52.870;8.798;2023-08-12T09:21:30;30.20;;;21.80;;
24383;SDS011;12504;52.870;8.798;2023-08-12T09:23:56;30.52;;;23.10;;
24383;SDS011;12504;52.870;8.798;2023-08-12T09:26:21;33.60;;;23.98;;
24383;SDS011;12504;52.870;8.798;2023-08-12T09:28:48;35.53;;;24.48;;
24383;SDS011;12504;52.870;8.798;2023-08-12T09:31:23;32.90;;;24.30;;
24383;SDS011;12504;52.870;8.798;2023-08-12T09:33:50;31.08;;;23.25;;
24383;SDS011;12504;52.870;8.798;2023-08-12T09:36:16;36.97;;;25.83;;
24383;SDS011;12504;52.870;8.798;2023-08-12T09:38:43;36.70;;;25.27;;
24383;SDS011;12504;52.870;8.798;2023-08-12T09:41:10;35.72;;;25.50;;
24383;SDS011;12504;52.870;8.798;2023-08-12T09:43:39;36.45;;;23.70;;
24383;SDS011;12504;52.870;8.798;2023-08-12T09:46:11;33.50;;;25.60;;
24383;SDS011;12504;52.870;8.798;2023-08-12T09:48:38;40.22;;;27.83;;
24383;SDS011;12504;52.870;8.798;2023-08-12T09:51:04;40.70;;;28.20;;
24383;SDS011;12504;52.870;8.798;2023-08-12T09:53:33;35.55;;;26.10;;
24383;SDS011;12504;52.870;8.798;2023-08-12T09:56:05;43.90;;;29.33;;
24383;SDS011;12504;52.870;8.798;2023-08-12T09:58:32;42.85;;;27.73;;
24383;SDS011;12504;52.870;8.798;2023-08-12T10:01:02;45.10;;;28.90;;
24383;SDS011;12504;52.870;8.798;2023-08-12T10:03:29;45.10;;;28.42;;
24383;SDS011;12504;52.870;8.798;2023-08-12T10:05:57;38.90;;;28.40;;
24383;SDS011;12504;52.870;8.798;2023-08-12T10:08:25;44.13;;;29.70;;
24383;SDS011;12504;52.870;8.798;2023-08-12T10:10:52;40.58;;;28.50;;
24383;SDS011;12504;52.870;8.798;2023-08-12T10:13:18;43.70;;;28.13;;
24383;SDS011;12504;52.870;8.798;2023-08-12T10:15:46;44.28;;;29.92;;
24383;SDS011;12504;52.870;8.798;2023-08-12T10:18:16;39.30;;;28.92;;
24383;SDS011;12504;52.870;8.798;2023-08-12T10:20:44;36.50;;;25.17;;
24383;SDS011;12504;52.870;8.798;2023-08-12T10:23:14;38.03;;;26.77;;
24383;SDS011;12504;52.870;8.798;2023-08-12T10:25:41;38.22;;;24.15;;
24383;SDS011;12504;52.870;8.798;2023-08-12T10:28:09;40.70;;;27.30;;
24383;SDS011;12504;52.870;8.798;2023-08-12T10:30:35;39.97;;;28.70;;
24383;SDS011;12504;52.870;8.798;2023-08-12T10:33:03;46.53;;;29.92;;
24383;SDS011;12504;52.870;8.798;2023-08-12T10:35:49;50.63;;;32.95;;
24383;SDS011;12504;52.870;8.798;2023-08-12T10:38:18;49.30;;;32.55;;
24383;SDS011;12504;52.870;8.798;2023-08-12T10:40:45;51.10;;;32.92;;
24383;SDS011;12504;52.870;8.798;2023-08-12T10:43:12;51.65;;;33.08;;
24383;SDS011;12504;52.870;8.798;2023-08-12T10:45:48;49.63;;;33.03;;
24383;SDS011;12504;52.870;8.798;2023-08-12T10:48:26;45.60;;;30.40;;
24383;SDS011;12504;52.870;8.798;2023-08-12T10:50:57;44.50;;;29.83;;
24383;SDS011;12504;52.870;8.798;2023-08-12T10:53:28;47.05;;;31.15;;
24383;SDS011;12504;52.870;8.798;2023-08-12T10:55:57;50.97;;;31.95;;
24383;SDS011;12504;52.870;8.798;2023-08-12T10:58:28;48.30;;;32.83;;
24383;SDS011;12504;52.870;8.798;2023-08-12T11:00:58;52.10;;;36.53;;
24383;SDS011;12504;52.870;8.798;2023-08-12T11:03:24;53.05;;;33.30;;
24383;SDS011;12504;52.870;8.798;2023-08-12T11:05:50;46.25;;;32.70;;
24383;SDS011;12504;52.870;8.798;2023-08-12T11:13:16;42.20;;;28.60;;
24383;SDS011;12504;52.870;8.798;2023-08-12T11:15:44;45.33;;;29.52;;
24383;SDS011;12504;52.870;8.798;2023-08-12T11:18:14;47.15;;;29.88;;
24383;SDS011;12504;52.870;8.798;2023-08-12T11:20:43;43.58;;;29.92;;
24383;SDS011;12504;52.870;8.798;2023-08-12T11:23:10;40.03;;;29.05;;
24383;SDS011;12504;52.870;8.798;2023-08-12T11:25:36;50.17;;;32.72;;
24383;SDS011;12504;52.870;8.798;2023-08-12T11:28:06;44.60;;;28.58;;
24383;SDS011;12504;52.870;8.798;2023-08-12T11:30:33;40.50;;;26.77;;
24383;SDS011;12504;52.870;8.798;2023-08-12T11:32:59;47.50;;;28.17;;
24383;SDS011;12504;52.870;8.798;2023-08-12T11:35:26;37.30;;;25.85;;
24383;SDS011;12504;52.870;8.798;2023-08-12T11:37:55;36.80;;;27.25;;
24383;SDS011;12504;52.870;8.798;2023-08-12T11:40:22;33.22;;;23.35;;
24383;SDS011;12504;52.870;8.798;2023-08-12T11:42:48;35.70;;;25.35;;
24383;SDS011;12504;52.870;8.798;2023-08-12T11:45:17;35.17;;;25.02;;
24383;SDS011;12504;52.870;8.798;2023-08-12T11:47:43;37.00;;;25.67;;
24383;SDS011;12504;52.870;8.798;2023-08-12T11:50:11;35.38;;;24.70;;
24383;SDS011;12504;52.870;8.798;2023-08-12T11:52:38;37.85;;;24.50;;
24383;SDS011;12504;52.870;8.798;2023-08-12T11:55:04;36.53;;;23.25;;
24383;SDS011;12504;52.870;8.798;2023-08-12T11:57:31;29.90;;;22.75;;
24383;SDS011;12504;52.870;8.798;2023-08-12T12:00:06;29.40;;;23.42;;
24383;SDS011;12504;52.870;8.798;2023-08-12T12:02:39;33.42;;;21.92;;
24383;SDS011;12504;52.870;8.798;2023-08-12T12:05:12;26.77;;;18.27;;
24383;SDS011;12504;52.870;8.798;2023-08-12T12:07:39;26.33;;;19.13;;
24383;SDS011;12504;52.870;8.798;2023-08-12T12:10:05;20.83;;;17.80;;
24383;SDS011;12504;52.870;8.798;2023-08-12T12:12:33;24.73;;;17.55;;
24383;SDS011;12504;52.870;8.798;2023-08-12T12:15:00;20.67;;;16.60;;
24383;SDS011;12504;52.870;8.798;2023-08-12T12:17:26;16.38;;;14.07;;
24383;SDS011;12504;52.870;8.798;2023-08-12T12:19:54;18.08;;;15.38;;
24383;SDS011;12504;52.870;8.798;2023-08-12T12:22:25;16.40;;;13.50;;
24383;SDS011;12504;52.870;8.798;2023-08-12T12:24:51;18.08;;;13.30;;
24383;SDS011;12504;52.870;8.798;2023-08-12T12:27:17;13.00;;;11.60;;
24383;SDS011;12504;52.870;8.798;2023-08-12T12:29:44;13.98;;;11.02;;
24383;SDS011;12504;52.870;8.798;2023-08-12T12:32:10;12.00;;;9.25;;
24383;SDS011;12504;52.870;8.798;2023-08-12T12:34:36;10.52;;;8.52;;
24383;SDS011;12504;52.870;8.798;2023-08-12T12:37:02;14.35;;;8.63;;
24383;SDS011;12504;52.870;8.798;2023-08-12T12:39:28;10.85;;;8.18;;
24383;SDS011;12504;52.870;8.798;2023-08-12T12:41:54;8.88;;;7.97;;
24383;SDS011;12504;52.870;8.798;2023-08-12T12:44:20;9.77;;;7.82;;
24383;SDS011;12504;52.870;8.798;2023-08-12T12:46:46;11.63;;;7.93;;
24383;SDS011;12504;52.870;8.798;2023-08-12T12:49:12;10.35;;;7.88;;
24383;SDS011;12504;52.870;8.798;2023-08-12T12:51:38;12.85;;;9.05;;
24383;SDS011;12504;52.870;8.798;2023-08-12T12:54:04;10.15;;;8.48;;
24383;SDS011;12504;52.870;8.798;2023-08-12T12:56:30;11.35;;;7.95;;
24383;SDS011;12504;52.870;8.798;2023-08-12T12:58:57;9.45;;;8.13;;
24383;SDS011;12504;52.870;8.798;2023-08-12T13:01:23;9.98;;;8.55;;
24383;SDS011;12504;52.870;8.798;2023-08-12T13:03:49;8.90;;;7.78;;
24383;SDS011;12504;52.870;8.798;2023-08-12T13:06:15;13.00;;;8.48;;
24383;SDS011;12504;52.870;8.798;2023-08-12T13:08:41;10.95;;;9.45;;
24383;SDS011;12504;52.870;8.798;2023-08-12T13:11:08;10.45;;;9.13;;
24383;SDS011;12504;52.870;8.798;2023-08-12T13:13:34;11.80;;;8.73;;
24383;SDS011;12504;52.870;8.798;2023-08-12T13:16:00;11.63;;;8.63;;
24383;SDS011;12504;52.870;8.798;2023-08-12T13:18:26;11.00;;;6.72;;
24383;SDS011;12504;52.870;8.798;2023-08-12T13:20:52;8.98;;;6.85;;
24383;SDS011;12504;52.870;8.798;2023-08-12T13:23:18;8.45;;;6.65;;
24383;SDS011;12504;52.870;8.798;2023-08-12T13:25:44;9.13;;;6.18;;
24383;SDS011;12504;52.870;8.798;2023-08-12T13:28:11;6.55;;;5.85;;
24383;SDS011;12504;52.870;8.798;2023-08-12T13:30:37;7.60;;;6.43;;
24383;SDS011;12504;52.870;8.798;2023-08-12T13:33:03;8.25;;;6.78;;
24383;SDS011;12504;52.870;8.798;2023-08-12T13:35:30;9.13;;;7.35;;
24383;SDS011;12504;52.870;8.798;2023-08-12T13:37:56;8.13;;;6.82;;
24383;SDS011;12504;52.870;8.798;2023-08-12T13:40:22;8.60;;;6.68;;
24383;SDS011;12504;52.870;8.798;2023-08-12T13:42:48;7.05;;;6.15;;
24383;SDS011;12504;52.870;8.798;2023-08-12T13:45:15;10.68;;;7.78;;
24383;SDS011;12504;52.870;8.798;2023-08-12T13:47:41;9.65;;;8.00;;
24383;SDS011;12504;52.870;8.798;2023-08-12T13:50:08;8.90;;;6.85;;
24383;SDS011;12504;52.870;8.798;2023-08-12T13:52:34;6.68;;;5.97;;
24383;SDS011;12504;52.870;8.798;2023-08-12T13:55:00;7.55;;;6.50;;
24383;SDS011;12504;52.870;8.798;2023-08-12T13:57:26;8.25;;;5.97;;
24383;SDS011;12504;52.870;8.798;2023-08-12T13:59:52;7.03;;;6.22;;
24383;SDS011;12504;52.870;8.798;2023-08-12T14:02:18;6.25;;;5.43;;
24383;SDS011;12504;52.870;8.798;2023-08-12T14:04:45;9.15;;;6.38;;
24383;SDS011;12504;52.870;8.798;2023-08-12T14:07:11;6.97;;;6.28;;
24383;SDS011;12504;52.870;8.798;2023-08-12T14:09:37;6.63;;;5.15;;
24383;SDS011;12504;52.870;8.798;2023-08-12T14:12:03;5.38;;;4.88;;
24383;SDS011;12504;52.870;8.798;2023-08-12T14:14:30;5.78;;;4.65;;
24383;SDS011;12504;52.870;8.798;2023-08-12T14:16:56;5.50;;;4.93;;
24383;SDS011;12504;52.870;8.798;2023-08-12T14:19:22;6.78;;;5.05;;
24383;SDS011;12504;52.870;8.798;2023-08-12T14:21:48;4.90;;;4.43;;
24383;SDS011;12504;52.870;8.798;2023-08-12T14:24:14;4.18;;;2.88;;
24383;SDS011;12504;52.870;8.798;2023-08-12T14:26:40;2.50;;;2.20;;
24383;SDS011;12504;52.870;8.798;2023-08-12T14:29:06;1.70;;;1.48;;
24383;SDS011;12504;52.870;8.798;2023-08-12T14:31:33;1.35;;;1.25;;